Time;durP1;ratioP1;P1;durP2;ratioP2;P2;SDS_P1;SDS_P2;PMS_P1;PMS_P2;Temp;Humidity;BMP_temperature;BMP_pressure;BME280_temperature;BME280_humidity;BME280_pressure;Samples;Min_cycle;Max_cycle;Signal;HPM_P1;HPM_P2
2023/11/23 00:02:05;;;;;;;25.65;15.98;;;8.50;91.30;;;;;;4991554;28;20026;-26
2023/11/23 00:04:30;;;;;;;24.27;14.13;;;8.40;91.30;;;;;;4993118;28;20026;-26
2023/11/23 00:06:56;;;;;;;22.80;14.15;;;8.50;91.40;;;;;;4993055;28;20053;-29
2023/11/23 00:09:22;;;;;;;22.88;14.27;;;8.40;91.40;;;;;;4993012;28;20033;-27
2023/11/23 00:11:47;;;;;;;23.20;13.73;;;8.50;91.40;;;;;;4992994;28;20431;-28
2023/11/23 00:14:13;;;;;;;26.77;15.80;;;8.50;91.40;;;;;;4992946;28;20121;-31
2023/11/23 00:16:43;;;;;;;22.60;14.10;;;8.50;91.40;;;;;;4992907;28;20030;-31
2023/11/23 00:19:09;;;;;;;24.58;15.00;;;8.50;91.40;;;;;;4992719;28;20041;-28
2023/11/23 00:21:35;;;;;;;26.15;14.93;;;8.50;91.50;;;;;;4992834;28;20036;-27
2023/11/23 00:24:01;;;;;;;20.88;14.20;;;8.50;91.50;;;;;;4992989;28;20030;-26
2023/11/23 00:26:26;;;;;;;28.70;15.02;;;8.60;91.50;;;;;;4992999;28;20081;-27
2023/11/23 00:28:52;;;;;;;24.48;14.52;;;8.60;91.60;;;;;;4993080;28;20387;-27
2023/11/23 00:31:17;;;;;;;23.60;15.25;;;8.60;91.60;;;;;;4992813;28;20054;-27
2023/11/23 00:33:43;;;;;;;23.05;15.10;;;8.60;91.60;;;;;;4992834;28;20040;-26
2023/11/23 00:36:09;;;;;;;24.17;15.15;;;8.60;91.60;;;;;;4992898;28;20073;-27
2023/11/23 00:38:35;;;;;;;22.38;14.57;;;8.60;91.60;;;;;;4992974;28;20041;-26
2023/11/23 00:41:01;;;;;;;27.25;15.88;;;8.60;91.70;;;;;;4992791;28;20050;-27
2023/11/23 00:43:27;;;;;;;28.10;15.48;;;8.60;91.70;;;;;;4992653;28;20027;-28
2023/11/23 00:45:52;;;;;;;22.85;15.85;;;8.60;91.70;;;;;;4992806;28;20115;-27
2023/11/23 00:48:18;;;;;;;27.98;17.13;;;8.60;91.90;;;;;;4991253;28;20038;-30
2023/11/23 00:50:43;;;;;;;28.95;17.55;;;8.60;91.80;;;;;;4992944;28;20034;-27
2023/11/23 00:53:09;;;;;;;25.35;16.48;;;8.60;91.90;;;;;;4996526;28;20475;-29
2023/11/23 00:55:36;;;;;;;23.55;15.30;;;8.60;91.90;;;;;;4996562;28;20402;-26
2023/11/23 00:58:02;;;;;;;29.17;17.20;;;8.60;91.90;;;;;;4995371;28;20057;-26
2023/11/23 01:00:28;;;;;;;29.52;17.83;;;8.60;92.00;;;;;;4996443;28;20030;-28
2023/11/23 01:02:54;;;;;;;25.45;16.60;;;8.70;92.10;;;;;;4996607;28;20019;-27
2023/11/23 01:05:20;;;;;;;28.20;18.05;;;8.60;92.10;;;;;;4996605;28;20363;-27
2023/11/23 01:07:45;;;;;;;29.80;17.70;;;8.70;92.10;;;;;;4996550;28;20080;-26
2023/11/23 01:10:11;;;;;;;26.42;16.33;;;8.70;92.10;;;;;;4996284;28;20478;-29
2023/11/23 01:12:37;;;;;;;26.00;15.90;;;8.70;92.20;;;;;;4996518;28;20030;-27
2023/11/23 01:15:03;;;;;;;22.73;15.38;;;8.70;92.20;;;;;;4996286;28;20415;-25
2023/11/23 01:17:28;;;;;;;25.17;16.50;;;8.70;92.20;;;;;;4996037;28;20027;-28
2023/11/23 01:19:54;;;;;;;27.90;16.90;;;8.80;92.20;;;;;;4996187;28;20073;-26
2023/11/23 01:22:20;;;;;;;27.38;16.38;;;8.80;92.30;;;;;;4996135;28;20031;-26
2023/11/23 01:24:45;;;;;;;29.35;18.02;;;8.80;92.30;;;;;;4996002;28;20425;-26
2023/11/23 01:27:11;;;;;;;26.98;16.50;;;8.80;92.30;;;;;;4995913;28;20121;-30
2023/11/23 01:29:36;;;;;;;24.27;16.20;;;8.80;92.30;;;;;;4995790;28;20050;-30
2023/11/23 01:32:02;;;;;;;24.45;16.33;;;8.80;92.40;;;;;;4995816;28;20049;-27
2023/11/23 01:34:28;;;;;;;30.45;18.48;;;8.80;92.40;;;;;;4995964;28;20042;-30
2023/11/23 01:36:53;;;;;;;25.40;16.17;;;8.90;92.50;;;;;;4995846;28;20491;-27
2023/11/23 01:39:19;;;;;;;24.55;16.15;;;8.90;92.50;;;;;;4995764;28;20089;-26
2023/11/23 01:41:44;;;;;;;27.10;17.02;;;8.90;92.50;;;;;;4995598;28;20034;-31
2023/11/23 01:44:13;;;;;;;27.65;17.73;;;8.90;92.50;;;;;;4995740;28;20422;-26
2023/11/23 01:46:39;;;;;;;27.42;16.02;;;8.90;92.60;;;;;;4995604;28;20451;-28
2023/11/23 01:49:05;;;;;;;28.88;17.92;;;8.90;92.60;;;;;;4995571;28;20069;-26
2023/11/23 01:51:31;;;;;;;30.73;19.27;;;9.00;92.60;;;;;;4995477;28;20030;-26
2023/11/23 01:53:58;;;;;;;29.77;17.77;;;9.00;92.70;;;;;;4995434;28;20061;-28
2023/11/23 01:56:26;;;;;;;32.65;18.17;;;9.00;93.00;;;;;;4995488;28;20026;-27
2023/11/23 01:58:52;;;;;;;27.80;18.15;;;9.00;92.70;;;;;;4995420;28;20027;-26
2023/11/23 02:01:18;;;;;;;25.65;17.95;;;9.00;92.80;;;;;;4995264;28;20018;-26
2023/11/23 02:03:45;;;;;;;27.75;17.73;;;9.00;92.80;;;;;;4994872;28;20033;-26
2023/11/23 02:06:12;;;;;;;31.95;19.23;;;9.10;92.80;;;;;;4995258;28;20030;-28
2023/11/23 02:08:39;;;;;;;30.63;18.73;;;9.10;92.90;;;;;;4995225;28;20030;-28
2023/11/23 02:11:05;;;;;;;27.58;16.67;;;9.10;92.90;;;;;;4995312;28;20023;-26
2023/11/23 02:13:33;;;;;;;30.02;17.98;;;9.10;92.90;;;;;;4995114;28;20034;-27
2023/11/23 02:15:59;;;;;;;23.48;16.48;;;9.10;93.20;;;;;;4995017;28;20030;-29
2023/11/23 02:18:25;;;;;;;24.27;16.55;;;9.20;93.00;;;;;;4995071;28;20037;-25
2023/11/23 02:20:51;;;;;;;27.30;16.70;;;9.20;92.90;;;;;;4995031;28;20109;-33
2023/11/23 02:23:17;;;;;;;25.02;15.55;;;9.20;93.00;;;;;;4994854;28;20025;-29
2023/11/23 02:25:42;;;;;;;20.23;14.63;;;9.30;93.00;;;;;;4994671;28;20022;-29
2023/11/23 02:28:08;;;;;;;27.40;16.35;;;9.30;93.00;;;;;;4994896;28;20038;-27
2023/11/23 02:30:34;;;;;;;27.25;17.65;;;9.30;93.00;;;;;;4994620;28;20514;-28
2023/11/23 02:33:01;;;;;;;26.73;17.95;;;9.30;93.10;;;;;;4994731;28;20065;-29
2023/11/23 02:35:27;;;;;;;34.63;20.30;;;9.30;93.10;;;;;;4994717;28;20122;-27
2023/11/23 02:37:53;;;;;;;27.67;18.92;;;9.40;93.20;;;;;;4994724;28;20105;-26
2023/11/23 02:40:19;;;;;;;26.75;16.52;;;9.40;93.20;;;;;;4994722;28;20097;-26
2023/11/23 02:42:44;;;;;;;23.77;16.55;;;9.40;93.20;;;;;;4994634;28;20101;-26
2023/11/23 02:45:11;;;;;;;28.40;16.90;;;9.40;93.20;;;;;;4994501;28;20026;-26
2023/11/23 02:47:37;;;;;;;23.50;15.10;;;9.50;93.20;;;;;;4994333;28;20121;-27
2023/11/23 02:50:04;;;;;;;28.05;16.15;;;9.50;93.50;;;;;;4994562;28;20482;-27
2023/11/23 02:52:30;;;;;;;26.48;16.10;;;9.50;93.20;;;;;;4994346;28;20027;-30
2023/11/23 02:54:56;;;;;;;22.15;15.40;;;9.50;93.20;;;;;;4994404;28;20030;-33
2023/11/23 02:57:22;;;;;;;25.48;16.30;;;9.50;93.20;;;;;;4994325;28;20048;-27
2023/11/23 02:59:50;;;;;;;24.92;16.00;;;9.60;93.30;;;;;;4994421;28;20026;-33
2023/11/23 03:02:16;;;;;;;25.13;16.80;;;9.60;93.30;;;;;;4994199;28;20378;-29
2023/11/23 03:04:41;;;;;;;26.48;16.45;;;9.60;93.30;;;;;;4994458;28;20034;-27
2023/11/23 03:07:08;;;;;;;24.45;16.27;;;9.60;93.40;;;;;;4994306;28;20026;-28
2023/11/23 03:09:34;;;;;;;22.65;15.88;;;9.60;93.40;;;;;;4994229;28;20109;-30
2023/11/23 03:12:00;;;;;;;24.70;15.30;;;9.60;93.40;;;;;;4994000;28;20452;-32
2023/11/23 03:14:25;;;;;;;25.15;16.08;;;9.70;93.40;;;;;;4993299;28;20030;-27
2023/11/23 03:16:52;;;;;;;20.92;14.45;;;9.70;93.40;;;;;;4994020;28;20057;-28
2023/11/23 03:19:17;;;;;;;24.25;16.25;;;9.70;93.40;;;;;;4994014;28;20050;-30
2023/11/23 03:21:43;;;;;;;23.55;14.75;;;9.70;93.40;;;;;;4993827;28;20454;-27
2023/11/23 03:24:09;;;;;;;24.67;14.75;;;9.70;93.40;;;;;;4993952;28;20032;-26
2023/11/23 03:26:35;;;;;;;23.83;15.57;;;9.80;93.40;;;;;;4993748;28;20030;-26
2023/11/23 03:29:01;;;;;;;21.05;15.82;;;9.80;93.60;;;;;;4993603;28;20050;-28
2023/11/23 03:31:26;;;;;;;24.48;16.27;;;9.80;93.50;;;;;;4993685;28;20033;-26
2023/11/23 03:33:52;;;;;;;22.63;15.80;;;9.80;93.60;;;;;;4993688;28;20042;-28
2023/11/23 03:36:17;;;;;;;19.98;15.00;;;9.80;93.50;;;;;;4993632;28;20084;-26
2023/11/23 03:38:43;;;;;;;21.45;15.82;;;9.80;93.50;;;;;;4993634;28;20371;-29
2023/11/23 03:41:09;;;;;;;21.85;15.80;;;9.80;93.50;;;;;;4993481;28;20026;-27
2023/11/23 03:43:34;;;;;;;23.98;16.00;;;9.90;93.60;;;;;;4992255;28;20026;-29
2023/11/23 03:46:00;;;;;;;31.00;16.88;;;9.90;93.60;;;;;;4993432;28;20030;-28
2023/11/23 03:48:25;;;;;;;21.40;14.48;;;9.90;93.60;;;;;;4993254;28;20023;-27
2023/11/23 03:50:51;;;;;;;26.35;16.83;;;9.90;93.60;;;;;;4993424;28;20026;-27
2023/11/23 03:53:17;;;;;;;26.90;16.42;;;9.90;93.60;;;;;;4993257;28;20089;-26
2023/11/23 03:55:42;;;;;;;19.25;14.65;;;9.90;93.60;;;;;;4993298;28;20106;-29
2023/11/23 03:58:08;;;;;;;23.27;15.23;;;9.90;93.60;;;;;;4991935;28;20030;-29
2023/11/23 04:00:34;;;;;;;23.30;15.52;;;10.00;93.60;;;;;;4993200;28;20052;-29
2023/11/23 04:03:01;;;;;;;25.63;15.90;;;10.00;93.70;;;;;;4993051;28;20030;-30
2023/11/23 04:05:27;;;;;;;21.77;15.50;;;10.00;93.70;;;;;;4993078;28;20057;-27
2023/11/23 04:07:53;;;;;;;22.48;15.20;;;10.00;93.70;;;;;;4993015;28;20061;-27
2023/11/23 04:10:18;;;;;;;21.25;14.88;;;10.00;93.70;;;;;;4992875;28;20026;-27
2023/11/23 04:12:44;;;;;;;28.50;16.80;;;10.00;93.70;;;;;;4992689;28;20061;-30
2023/11/23 04:15:12;;;;;;;23.58;16.40;;;10.00;93.70;;;;;;4992327;28;20069;-42
2023/11/23 04:17:38;;;;;;;23.20;15.30;;;10.00;93.70;;;;;;4992554;28;20118;-37
2023/11/23 04:20:05;;;;;;;22.75;15.55;;;10.00;93.70;;;;;;4992302;28;20392;-29
2023/11/23 04:22:30;;;;;;;21.95;14.93;;;10.00;93.80;;;;;;4992146;28;20406;-28
2023/11/23 04:24:56;;;;;;;23.98;14.68;;;10.00;93.80;;;;;;4992014;28;20027;-32
2023/11/23 04:27:21;;;;;;;23.08;15.25;;;10.00;93.80;;;;;;4992421;28;20041;-37
2023/11/23 04:29:48;;;;;;;22.17;14.75;;;10.00;93.80;;;;;;4991883;28;20050;-28
2023/11/23 04:32:14;;;;;;;21.90;15.13;;;10.00;93.80;;;;;;4992288;28;20027;-27
2023/11/23 04:34:40;;;;;;;20.75;13.10;;;10.00;93.80;;;;;;4990744;28;20080;-33
2023/11/23 04:37:06;;;;;;;21.85;13.60;;;10.10;93.80;;;;;;4990843;28;20053;-36
2023/11/23 04:39:31;;;;;;;23.58;15.05;;;10.10;93.80;;;;;;4992070;28;20030;-31
2023/11/23 04:41:57;;;;;;;19.67;13.32;;;10.10;93.80;;;;;;4990745;28;20082;-31
2023/11/23 04:44:22;;;;;;;20.90;13.82;;;10.10;93.80;;;;;;4992096;28;20506;-32
2023/11/23 04:46:49;;;;;;;21.23;14.13;;;10.10;93.80;;;;;;4991881;28;20030;-32
2023/11/23 04:49:14;;;;;;;22.70;13.48;;;10.10;93.80;;;;;;4992068;28;20062;-30
2023/11/23 04:51:40;;;;;;;22.35;12.30;;;10.20;93.90;;;;;;4991853;28;20434;-29
2023/11/23 04:54:06;;;;;;;16.52;12.27;;;10.10;93.80;;;;;;4991909;28;20058;-35
2023/11/23 04:56:32;;;;;;;20.92;13.05;;;10.20;94.10;;;;;;4991911;28;20054;-26
2023/11/23 04:58:57;;;;;;;16.98;12.32;;;10.20;93.90;;;;;;4991960;28;21029;-35
2023/11/23 05:01:23;;;;;;;17.25;11.68;;;10.20;93.90;;;;;;4991837;28;20113;-27
2023/11/23 05:03:48;;;;;;;18.90;12.05;;;10.20;93.90;;;;;;4991970;28;20113;-31
2023/11/23 05:06:15;;;;;;;20.25;12.50;;;10.20;93.90;;;;;;4991813;28;20482;-26
2023/11/23 05:08:46;;;;;;;19.20;12.45;;;10.20;93.90;;;;;;4991791;28;20106;-29
2023/11/23 05:11:12;;;;;;;19.67;11.88;;;10.20;93.90;;;;;;4991900;28;20447;-25
2023/11/23 05:13:38;;;;;;;21.20;11.82;;;10.20;93.90;;;;;;4992108;28;20504;-26
2023/11/23 05:16:05;;;;;;;19.80;11.13;;;10.30;93.90;;;;;;4991792;28;20117;-31
2023/11/23 05:18:31;;;;;;;22.85;12.32;;;10.20;93.90;;;;;;4991146;28;20050;-26
2023/11/23 05:20:57;;;;;;;21.95;12.60;;;10.30;93.90;;;;;;4991494;28;20475;-32
2023/11/23 05:23:22;;;;;;;18.92;11.73;;;10.20;93.90;;;;;;4991440;28;20030;-26
2023/11/23 05:25:49;;;;;;;17.95;10.75;;;10.20;93.90;;;;;;4991700;28;20034;-27
2023/11/23 05:28:15;;;;;;;19.13;11.88;;;10.20;93.90;;;;;;4991506;28;20166;-30
2023/11/23 05:30:41;;;;;;;16.52;11.50;;;10.20;93.90;;;;;;4991432;28;20081;-28
2023/11/23 05:33:06;;;;;;;14.60;11.63;;;10.30;93.90;;;;;;4991503;28;20076;-25
2023/11/23 05:35:32;;;;;;;15.10;9.68;;;10.20;93.90;;;;;;4991527;28;20041;-30
2023/11/23 05:37:57;;;;;;;16.05;9.65;;;10.30;93.90;;;;;;4993459;28;20113;-27
2023/11/23 05:40:23;;;;;;;15.25;10.40;;;10.20;93.90;;;;;;4995060;28;20034;-27
2023/11/23 05:42:49;;;;;;;14.45;9.43;;;10.30;93.90;;;;;;4994982;28;20022;-28
2023/11/23 05:45:15;;;;;;;16.92;9.85;;;10.30;93.90;;;;;;4995133;28;20042;-29
2023/11/23 05:47:41;;;;;;;14.50;9.27;;;10.30;93.90;;;;;;4995064;28;20065;-29
2023/11/23 05:50:08;;;;;;;13.55;8.75;;;10.30;93.80;;;;;;4994928;28;20039;-27
2023/11/23 05:52:34;;;;;;;16.02;9.48;;;10.30;93.80;;;;;;4994814;28;20062;-27
2023/11/23 05:54:59;;;;;;;14.38;10.57;;;10.30;93.80;;;;;;4994886;28;20113;-29
2023/11/23 05:57:25;;;;;;;13.52;9.90;;;10.30;93.80;;;;;;4994829;28;20041;-26
2023/11/23 05:59:54;;;;;;;17.08;11.00;;;10.30;94.00;;;;;;4994776;28;20546;-31
2023/11/23 06:02:20;;;;;;;15.30;10.02;;;10.30;93.80;;;;;;4994922;28;20027;-28
2023/11/23 06:04:47;;;;;;;18.77;9.82;;;10.30;93.80;;;;;;4994633;28;20419;-29
2023/11/23 06:07:13;;;;;;;16.40;11.05;;;10.30;93.80;;;;;;4994884;28;20389;-37
2023/11/23 06:09:39;;;;;;;17.15;9.82;;;10.30;93.80;;;;;;4994764;28;20034;-28
2023/11/23 06:12:05;;;;;;;16.33;9.40;;;10.30;93.80;;;;;;4994496;28;20027;-25
2023/11/23 06:14:36;;;;;;;20.95;11.27;;;10.30;93.80;;;;;;4994397;28;20394;-25
2023/11/23 06:17:03;;;;;;;15.00;9.90;;;10.30;93.80;;;;;;4994364;28;20027;-28
2023/11/23 06:19:29;;;;;;;16.40;10.18;;;10.30;93.80;;;;;;4994261;28;20023;-25
2023/11/23 06:21:55;;;;;;;17.08;10.40;;;10.30;93.80;;;;;;4994134;28;20033;-27
2023/11/23 06:24:22;;;;;;;16.58;10.65;;;10.30;93.80;;;;;;4994215;28;20034;-34
2023/11/23 06:26:48;;;;;;;17.95;9.85;;;10.30;93.80;;;;;;4994286;28;20350;-27
2023/11/23 06:29:14;;;;;;;18.92;11.88;;;10.30;93.80;;;;;;4994002;28;20050;-27
2023/11/23 06:31:39;;;;;;;21.60;11.73;;;10.30;93.80;;;;;;4992718;28;20037;-29
2023/11/23 06:34:05;;;;;;;18.77;11.40;;;10.30;93.90;;;;;;4992603;28;20061;-28
2023/11/23 06:36:30;;;;;;;17.55;11.38;;;10.30;93.90;;;;;;4994004;28;20080;-31
2023/11/23 06:38:56;;;;;;;16.95;12.15;;;10.30;93.90;;;;;;4994033;28;20447;-29
2023/11/23 06:41:22;;;;;;;20.58;12.07;;;10.30;93.90;;;;;;4992411;28;20026;-27
2023/11/23 06:43:52;;;;;;;16.42;12.10;;;10.40;93.90;;;;;;4993860;28;20030;-29
2023/11/23 06:46:18;;;;;;;21.42;13.10;;;10.40;93.90;;;;;;4994167;28;20069;-26
2023/11/23 06:48:44;;;;;;;25.67;14.52;;;10.40;93.90;;;;;;4992404;28;20030;-30
2023/11/23 06:51:10;;;;;;;23.73;14.35;;;10.40;93.90;;;;;;4993644;28;20031;-28
2023/11/23 06:53:43;;;;;;;18.95;13.25;;;10.40;94.00;;;;;;4993600;28;20486;-35
2023/11/23 06:56:16;;;;;;;24.63;13.88;;;10.40;94.00;;;;;;4993568;28;20498;-29
2023/11/23 06:58:48;;;;;;;21.23;13.90;;;10.40;94.00;;;;;;4993685;28;20036;-28
2023/11/23 07:01:15;;;;;;;26.40;14.18;;;10.40;94.00;;;;;;4993465;28;20030;-31
2023/11/23 07:03:41;;;;;;;22.08;14.00;;;10.40;94.00;;;;;;4993717;28;20026;-29
2023/11/23 07:06:08;;;;;;;23.17;14.20;;;10.40;94.00;;;;;;4993510;28;20034;-28
2023/11/23 07:08:40;;;;;;;23.17;13.40;;;10.50;94.10;;;;;;4992088;28;20379;-28
2023/11/23 07:11:06;;;;;;;23.02;13.27;;;10.50;94.10;;;;;;4993647;28;20585;-29
2023/11/23 07:13:35;;;;;;;21.80;13.10;;;10.50;94.10;;;;;;4993277;28;20072;-35
2023/11/23 07:16:02;;;;;;;20.42;12.75;;;10.50;94.10;;;;;;4993487;28;20030;-28
2023/11/23 07:18:28;;;;;;;21.23;13.05;;;10.50;94.10;;;;;;4993378;28;20140;-29
2023/11/23 07:20:55;;;;;;;24.35;12.45;;;10.50;94.10;;;;;;4993046;28;20041;-31
2023/11/23 07:23:23;;;;;;;20.58;11.88;;;10.50;94.10;;;;;;4993229;28;20049;-27
2023/11/23 07:25:49;;;;;;;20.90;11.70;;;10.50;94.10;;;;;;4993127;28;20379;-30
2023/11/23 07:28:16;;;;;;;18.25;11.98;;;10.50;94.00;;;;;;4993063;28;20040;-33
2023/11/23 07:30:42;;;;;;;18.33;12.20;;;10.50;94.00;;;;;;4992679;28;20046;-29
2023/11/23 07:33:08;;;;;;;17.52;10.88;;;10.50;94.00;;;;;;4992683;28;20034;-29
2023/11/23 07:35:35;;;;;;;17.88;9.63;;;10.50;94.00;;;;;;4992829;28;20073;-29
2023/11/23 07:38:03;;;;;;;21.88;12.05;;;10.50;94.00;;;;;;4991510;28;20405;-30
2023/11/23 07:40:29;;;;;;;17.85;11.77;;;10.50;94.00;;;;;;4993067;28;20030;-28
2023/11/23 07:42:54;;;;;;;19.88;10.77;;;10.50;94.00;;;;;;4992602;28;20030;-29
2023/11/23 07:45:20;;;;;;;17.90;10.85;;;10.50;94.00;;;;;;4992915;28;20041;-29
2023/11/23 07:47:46;;;;;;;16.85;11.18;;;10.50;93.90;;;;;;4992499;28;20474;-29
2023/11/23 07:50:15;;;;;;;17.75;10.80;;;10.50;93.90;;;;;;4993063;28;20054;-30
2023/11/23 07:52:42;;;;;;;21.83;12.13;;;10.50;93.90;;;;;;4992846;28;20073;-28
2023/11/23 07:55:10;;;;;;;15.50;10.63;;;10.50;93.90;;;;;;4992589;28;20034;-29
2023/11/23 07:57:36;;;;;;;21.50;11.35;;;10.50;93.90;;;;;;4992885;28;20026;-29
2023/11/23 08:00:04;;;;;;;18.15;10.95;;;10.60;94.00;;;;;;4992110;28;20038;-28
2023/11/23 08:02:30;;;;;;;17.95;10.18;;;10.60;93.90;;;;;;4992442;28;20084;-28
2023/11/23 08:04:56;;;;;;;17.95;11.13;;;10.60;93.90;;;;;;4992728;28;20054;-28
2023/11/23 08:07:21;;;;;;;20.13;11.20;;;10.60;93.90;;;;;;4992515;28;20545;-29
2023/11/23 08:09:47;;;;;;;17.25;10.38;;;10.60;93.90;;;;;;4974951;28;20026;-26
2023/11/23 08:12:13;;;;;;;21.42;12.15;;;10.60;93.80;;;;;;4992282;28;20172;-29
2023/11/23 08:14:38;;;;;;;17.15;11.32;;;10.70;93.90;;;;;;4992460;28;20390;-33
2023/11/23 08:17:08;;;;;;;15.48;10.25;;;10.70;93.80;;;;;;4992176;28;20053;-28
2023/11/23 08:19:34;;;;;;;15.63;9.52;;;10.70;93.90;;;;;;4992447;28;20045;-26
2023/11/23 08:22:00;;;;;;;15.50;11.07;;;10.70;93.80;;;;;;4992184;28;20026;-27
2023/11/23 08:24:25;;;;;;;15.23;10.35;;;10.70;93.80;;;;;;4992377;28;20031;-30
2023/11/23 08:26:52;;;;;;;18.77;11.02;;;10.70;93.90;;;;;;4990583;28;20556;-31
2023/11/23 08:29:18;;;;;;;19.85;10.80;;;10.70;93.80;;;;;;4990625;28;20093;-30
2023/11/23 08:31:44;;;;;;;16.52;9.73;;;10.70;93.80;;;;;;4990969;28;20038;-28
2023/11/23 08:34:10;;;;;;;17.05;10.23;;;10.70;93.80;;;;;;4990981;28;20030;-30
2023/11/23 08:36:36;;;;;;;14.35;9.23;;;10.70;93.80;;;;;;4991366;28;20033;-30
2023/11/23 08:39:03;;;;;;;14.85;9.50;;;10.70;93.80;;;;;;4992113;28;20027;-34
2023/11/23 08:41:30;;;;;;;17.67;11.00;;;10.80;93.80;;;;;;4990812;28;20022;-29
2023/11/23 08:43:56;;;;;;;19.30;11.15;;;10.70;93.80;;;;;;4992018;28;20057;-35
2023/11/23 08:46:21;;;;;;;18.70;10.43;;;10.80;93.80;;;;;;4992339;28;20047;-30
2023/11/23 08:48:47;;;;;;;18.50;10.05;;;10.80;93.80;;;;;;4991737;28;20038;-27
2023/11/23 08:51:14;;;;;;;18.52;10.40;;;10.80;93.80;;;;;;4992152;28;20057;-26
2023/11/23 08:53:40;;;;;;;19.35;11.10;;;10.80;93.80;;;;;;4992236;28;20173;-30
2023/11/23 08:56:06;;;;;;;18.05;10.43;;;10.80;93.80;;;;;;4992095;28;20533;-28
2023/11/23 08:58:31;;;;;;;17.35;10.75;;;10.80;93.80;;;;;;4991797;28;20031;-28
2023/11/23 09:00:57;;;;;;;17.48;10.43;;;10.90;93.80;;;;;;4992094;28;20081;-27
2023/11/23 09:03:22;;;;;;;14.35;9.65;;;10.80;93.70;;;;;;4991734;28;20046;-27
2023/11/23 09:05:48;;;;;;;18.95;11.13;;;10.90;93.80;;;;;;4991962;28;20064;-27
2023/11/23 09:08:14;;;;;;;17.92;10.23;;;10.90;93.80;;;;;;4992107;28;20062;-27
2023/11/23 09:10:40;;;;;;;14.07;9.68;;;10.90;93.80;;;;;;4990347;28;20037;-29
2023/11/23 09:13:05;;;;;;;17.27;10.38;;;11.00;93.80;;;;;;4994153;28;20050;-26
2023/11/23 09:15:32;;;;;;;18.75;11.40;;;11.00;93.80;;;;;;4995421;28;20039;-26
2023/11/23 09:17:58;;;;;;;18.17;10.40;;;11.00;93.70;;;;;;4995571;28;20026;-27
2023/11/23 09:20:23;;;;;;;15.52;10.35;;;11.00;93.70;;;;;;4995311;28;20387;-30
2023/11/23 09:22:50;;;;;;;16.60;10.05;;;11.10;93.70;;;;;;4995260;28;20038;-27
2023/11/23 09:25:16;;;;;;;15.50;9.98;;;11.10;94.00;;;;;;4994985;28;20046;-30
2023/11/23 09:27:42;;;;;;;15.55;9.40;;;11.10;93.70;;;;;;4995240;28;20397;-30
2023/11/23 09:30:09;;;;;;;18.48;10.65;;;11.20;93.60;;;;;;4994907;28;20046;-31
2023/11/23 09:32:38;;;;;;;18.38;9.70;;;11.20;93.60;;;;;;4993714;28;20490;-27
2023/11/23 09:35:10;;;;;;;16.02;9.48;;;11.20;93.60;;;;;;4995002;28;20052;-30
2023/11/23 09:37:39;;;;;;;18.40;9.40;;;11.20;93.60;;;;;;4995002;28;20038;-27
2023/11/23 09:40:09;;;;;;;11.73;8.40;;;11.20;93.60;;;;;;4995014;28;20034;-33
2023/11/23 09:42:37;;;;;;;12.80;8.68;;;11.30;93.60;;;;;;4994869;28;20022;-31
2023/11/23 09:45:06;;;;;;;12.65;8.68;;;11.30;93.50;;;;;;4994934;28;20117;-29
2023/11/23 09:47:34;;;;;;;13.95;8.60;;;11.40;93.50;;;;;;4994766;28;20372;-31
2023/11/23 09:50:00;;;;;;;10.57;7.90;;;11.40;93.50;;;;;;4995221;28;20411;-30
2023/11/23 09:52:27;;;;;;;13.27;9.13;;;11.40;93.50;;;;;;4994778;28;20030;-32
2023/11/23 09:54:56;;;;;;;11.57;8.52;;;11.40;93.40;;;;;;4994616;28;20042;-32
2023/11/23 09:57:23;;;;;;;12.05;8.70;;;11.50;93.50;;;;;;4994851;28;20105;-29
2023/11/23 09:59:49;;;;;;;16.40;8.93;;;11.50;93.40;;;;;;4994661;28;20023;-31
2023/11/23 10:02:20;;;;;;;10.45;7.30;;;11.50;93.40;;;;;;4994534;28;20038;-29
2023/11/23 10:04:48;;;;;;;17.33;8.68;;;11.50;93.40;;;;;;4994690;28;20030;-35
2023/11/23 10:07:19;;;;;;;17.25;8.32;;;11.50;93.30;;;;;;4994463;28;20041;-30
2023/11/23 10:09:46;;;;;;;13.98;8.27;;;11.50;93.20;;;;;;4994431;28;20546;-30
2023/11/23 10:12:12;;;;;;;17.63;8.82;;;11.60;93.30;;;;;;4994519;28;20034;-31
2023/11/23 10:14:39;;;;;;;13.13;8.10;;;11.60;93.20;;;;;;4994451;28;20042;-30
2023/11/23 10:17:06;;;;;;;11.32;7.93;;;11.70;93.20;;;;;;4994331;28;20364;-32
2023/11/23 10:19:31;;;;;;;15.07;8.70;;;11.70;93.20;;;;;;4994457;28;20538;-30
2023/11/23 10:21:59;;;;;;;10.25;7.78;;;11.80;93.10;;;;;;4994267;28;20154;-28
2023/11/23 10:24:25;;;;;;;12.10;7.75;;;11.80;93.10;;;;;;4993974;28;20030;-29
2023/11/23 10:26:52;;;;;;;11.77;7.55;;;11.80;93.00;;;;;;4994230;28;20399;-31
2023/11/23 10:29:18;;;;;;;13.95;6.90;;;11.80;93.00;;;;;;4994121;28;20117;-33
2023/11/23 10:31:44;;;;;;;12.82;6.90;;;11.90;93.00;;;;;;4994015;28;20105;-30
2023/11/23 10:34:12;;;;;;;11.93;7.32;;;11.90;93.20;;;;;;4994405;28;20053;-29
2023/11/23 10:36:40;;;;;;;11.38;6.13;;;11.90;92.90;;;;;;4992790;28;20022;-30
2023/11/23 10:39:11;;;;;;;9.95;6.30;;;11.90;92.90;;;;;;4993634;28;20026;-29
2023/11/23 10:41:39;;;;;;;11.15;5.95;;;11.90;92.90;;;;;;4994161;28;20069;-30
2023/11/23 10:44:07;;;;;;;11.40;5.38;;;12.00;92.90;;;;;;4993931;28;20301;-34
2023/11/23 10:46:34;;;;;;;8.00;5.53;;;12.00;92.80;;;;;;4992539;28;20097;-34
2023/11/23 10:49:00;;;;;;;10.85;5.70;;;12.00;92.80;;;;;;4993728;28;20022;-28
2023/11/23 10:51:30;;;;;;;8.23;5.13;;;12.00;92.70;;;;;;4993677;28;20080;-33
2023/11/23 10:53:56;;;;;;;12.85;6.28;;;12.10;92.70;;;;;;4992406;28;20018;-28
2023/11/23 10:56:25;;;;;;;12.25;5.53;;;12.10;92.70;;;;;;4993629;28;20049;-29
2023/11/23 10:58:55;;;;;;;12.13;5.90;;;12.00;92.60;;;;;;4993709;28;20494;-29
2023/11/23 11:01:23;;;;;;;8.80;5.57;;;12.00;92.60;;;;;;4993034;28;20029;-28
2023/11/23 11:03:49;;;;;;;9.27;5.30;;;12.00;92.50;;;;;;4992189;28;20110;-28
2023/11/23 11:06:17;;;;;;;9.13;5.40;;;12.00;92.60;;;;;;4993485;28;20058;-35
2023/11/23 11:08:47;;;;;;;11.27;5.18;;;12.00;92.60;;;;;;4993705;28;20466;-35
2023/11/23 11:11:21;;;;;;;11.05;5.65;;;12.10;92.60;;;;;;4993445;28;20093;-32
2023/11/23 11:13:47;;;;;;;11.93;5.18;;;12.10;92.50;;;;;;4993251;28;20033;-28
2023/11/23 11:16:14;;;;;;;7.40;4.70;;;12.10;92.50;;;;;;4993507;28;20467;-30
2023/11/23 11:18:50;;;;;;;9.60;4.80;;;12.20;92.50;;;;;;4993151;28;20029;-30
2023/11/23 11:21:18;;;;;;;8.38;4.20;;;12.20;92.50;;;;;;4993050;28;20172;-32
2023/11/23 11:23:52;;;;;;;7.72;4.20;;;12.20;92.50;;;;;;4993194;28;20394;-30
2023/11/23 11:26:19;;;;;;;;;;;12.20;92.40;;;;;;4993251;28;20022;-27
2023/11/23 11:28:54;;;;;;;9.60;4.03;;;12.20;92.40;;;;;;4992913;28;20422;-33
2023/11/23 11:31:31;;;;;;;10.60;4.15;;;12.20;92.40;;;;;;4993196;28;20018;-27
2023/11/23 11:33:57;;;;;;;8.13;3.78;;;12.20;92.30;;;;;;4992858;28;20023;-27
2023/11/23 11:36:27;;;;;;;10.05;4.20;;;12.30;92.40;;;;;;4992286;28;20510;-33
2023/11/23 11:38:59;;;;;;;10.30;4.30;;;12.30;92.30;;;;;;4992827;28;20422;-29
2023/11/23 11:41:29;;;;;;;8.55;3.85;;;12.30;92.30;;;;;;4993092;28;20033;-28
2023/11/23 11:44:05;;;;;;;8.00;3.80;;;12.30;92.30;;;;;;4992625;28;20029;-31
2023/11/23 11:46:33;;;;;;;8.57;3.97;;;12.30;92.30;;;;;;4993018;28;20022;-28
2023/11/23 11:48:59;;;;;;;9.57;3.88;;;12.30;92.20;;;;;;4992702;28;20034;-25
2023/11/23 11:51:25;;;;;;;5.90;3.50;;;12.30;92.20;;;;;;4992579;28;20026;-28
2023/11/23 11:53:53;;;;;;;8.07;3.38;;;12.30;92.20;;;;;;4992676;28;20031;-30
2023/11/23 11:56:19;;;;;;;8.18;3.88;;;12.30;92.20;;;;;;4992386;28;20026;-30
2023/11/23 11:58:47;;;;;;;7.10;3.45;;;12.30;92.20;;;;;;4992545;28;20014;-29
2023/11/23 12:01:13;;;;;;;9.80;4.10;;;12.30;92.20;;;;;;4991169;28;20391;-27
2023/11/23 12:03:39;;;;;;;10.82;3.70;;;12.30;92.20;;;;;;4992522;28;20093;-28
2023/11/23 12:06:05;;;;;;;10.63;3.50;;;12.40;92.30;;;;;;4992417;28;20050;-27
2023/11/23 12:08:34;;;;;;;11.07;3.80;;;12.40;92.20;;;;;;4992453;28;20298;-30
2023/11/23 12:11:01;;;;;;;9.18;3.60;;;12.40;92.20;;;;;;4992649;28;20121;-28
2023/11/23 12:13:26;;;;;;;9.38;3.53;;;12.40;92.20;;;;;;4992290;28;20026;-27
2023/11/23 12:15:55;;;;;;;5.28;3.17;;;12.40;92.20;;;;;;4992543;28;20030;-27
2023/11/23 12:18:35;;;;;;;6.78;3.28;;;12.40;92.20;;;;;;4992301;28;20023;-29
2023/11/23 12:21:03;;;;;;;9.20;3.45;;;12.40;92.20;;;;;;4992691;28;20023;-29
2023/11/23 12:23:29;;;;;;;6.72;2.88;;;12.40;92.20;;;;;;4992252;28;20446;-28
2023/11/23 12:25:55;;;;;;;7.18;3.05;;;12.50;92.20;;;;;;4990667;28;20057;-26
2023/11/23 12:28:22;;;;;;;5.68;2.65;;;12.50;92.10;;;;;;4992255;28;20441;-29
2023/11/23 12:30:48;;;;;;;4.10;2.90;;;12.50;92.10;;;;;;4992044;28;20058;-27
2023/11/23 12:33:14;;;;;;;6.35;2.75;;;12.60;92.10;;;;;;4990830;28;20026;-27